Time;durP1;ratioP1;P1;durP2;ratioP2;P2;SDS_P1;SDS_P2;PMS_P1;PMS_P2;Temp;Humidity;BMP_temperature;BMP_pressure;BME280_temperature;BME280_humidity;BME280_pressure;Samples;Min_cycle;Max_cycle;Signal;HPM_P1;HPM_P2
2023/05/26 00:02:24;;;;;;;16.67;3.90;;;9.40;99.90;;;;;;5038161;28;20682;-64
2023/05/26 00:04:51;;;;;;;15.63;3.42;;;9.40;99.90;;;;;;5031395;28;20224;-65
2023/05/26 00:07:18;;;;;;;14.50;4.15;;;9.30;99.90;;;;;;5024500;28;20397;-65
2023/05/26 00:09:45;;;;;;;22.55;3.78;;;9.30;99.90;;;;;;5026642;28;20228;-65
2023/05/26 00:12:12;;;;;;;16.85;4.63;;;9.20;99.90;;;;;;5039772;28;20315;-65
2023/05/26 00:14:40;;;;;;;17.98;4.90;;;9.30;99.90;;;;;;5025386;28;20205;-64
2023/05/26 00:17:07;;;;;;;20.38;4.55;;;9.30;99.90;;;;;;5041471;28;20220;-64
2023/05/26 00:19:37;;;;;;;25.80;4.28;;;9.20;99.90;;;;;;5041281;28;20789;-64
2023/05/26 00:22:04;;;;;;;20.52;4.53;;;9.20;99.90;;;;;;4992131;28;20202;-65
2023/05/26 00:24:31;;;;;;;19.90;4.22;;;9.10;99.90;;;;;;5024833;28;20224;-64
2023/05/26 00:26:58;;;;;;;20.88;3.83;;;9.10;99.90;;;;;;5032765;28;20209;-64
2023/05/26 00:29:25;;;;;;;12.63;3.90;;;9.10;99.90;;;;;;5035760;28;20200;-64
2023/05/26 00:31:53;;;;;;;29.20;4.30;;;9.10;99.90;;;;;;5029430;28;20201;-64
2023/05/26 00:34:20;;;;;;;14.07;3.90;;;9.10;99.90;;;;;;5039275;28;20233;-64
2023/05/26 00:36:47;;;;;;;16.35;4.32;;;9.00;99.90;;;;;;5008642;28;20204;-64
2023/05/26 00:39:14;;;;;;;17.40;3.88;;;8.90;99.90;;;;;;5042364;28;20197;-65
2023/05/26 00:41:41;;;;;;;19.15;4.22;;;9.00;99.90;;;;;;5041091;28;20208;-64
2023/05/26 00:44:08;;;;;;;21.17;3.70;;;8.90;99.90;;;;;;5030474;28;20232;-65
2023/05/26 00:46:35;;;;;;;26.30;5.80;;;8.90;99.90;;;;;;5027120;28;20197;-64
2023/05/26 00:49:03;;;;;;;25.02;4.68;;;8.90;99.90;;;;;;5040219;28;20208;-64
2023/05/26 00:51:31;;;;;;;28.88;4.65;;;8.90;99.90;;;;;;5040481;28;20662;-65
2023/05/26 00:53:58;;;;;;;15.50;4.53;;;9.00;99.90;;;;;;5004468;28;20399;-64
2023/05/26 00:56:27;;;;;;;21.33;4.90;;;9.00;99.90;;;;;;5025088;28;20217;-64
2023/05/26 00:58:54;;;;;;;16.60;4.13;;;9.00;99.90;;;;;;5031345;28;20220;-64
2023/05/26 01:01:21;;;;;;;18.02;3.63;;;8.90;99.90;;;;;;5028643;28;20208;-64
2023/05/26 01:03:48;;;;;;;22.10;4.55;;;8.90;99.90;;;;;;5036733;28;20233;-64
2023/05/26 01:06:17;;;;;;;20.58;4.07;;;8.90;99.90;;;;;;5040369;28;20217;-64
2023/05/26 01:08:43;;;;;;;20.23;4.20;;;8.90;99.90;;;;;;5010318;28;20613;-64
2023/05/26 01:11:25;;;;;;;20.65;4.32;;;9.00;99.90;;;;;;5041338;28;20224;-65
2023/05/26 01:13:55;;;;;;;13.88;3.03;;;8.90;99.90;;;;;;5038454;28;20229;-64
2023/05/26 01:16:27;;;;;;;19.10;4.07;;;8.90;99.90;;;;;;5025108;28;20662;-64
2023/05/26 01:19:00;;;;;;;18.08;3.88;;;8.70;99.90;;;;;;5039391;28;20298;-64
2023/05/26 01:21:33;;;;;;;10.98;3.55;;;8.60;99.90;;;;;;5039329;28;20227;-65
2023/05/26 01:24:20;;;;;;;21.15;4.43;;;8.40;99.90;;;;;;5007463;28;20255;-64
2023/05/26 01:26:58;;;;;;;17.83;3.70;;;8.30;99.90;;;;;;5038205;28;20716;-64
2023/05/26 01:29:30;;;;;;;18.17;3.63;;;8.20;99.90;;;;;;5039391;28;20224;-65
2023/05/26 01:32:07;;;;;;;16.45;3.90;;;8.20;99.90;;;;;;5024740;28;20905;-64
2023/05/26 01:34:33;;;;;;;13.00;3.55;;;8.10;99.90;;;;;;5037635;28;20340;-64
2023/05/26 01:37:00;;;;;;;15.43;3.90;;;8.10;99.90;;;;;;5041296;28;20229;-64
2023/05/26 01:39:28;;;;;;;16.10;3.70;;;8.10;99.90;;;;;;5005636;28;20208;-64
2023/05/26 01:42:05;;;;;;;18.05;3.90;;;8.00;99.90;;;;;;5032436;28;20252;-64
2023/05/26 01:44:38;;;;;;;13.07;3.90;;;7.90;99.90;;;;;;5043052;28;20237;-64
2023/05/26 01:47:07;;;;;;;14.15;3.85;;;7.90;99.90;;;;;;5016846;28;21077;-64
2023/05/26 01:49:35;;;;;;;16.23;4.22;;;7.90;99.90;;;;;;5042900;28;20350;-64
2023/05/26 01:52:07;;;;;;;17.58;4.90;;;7.90;99.90;;;;;;5034787;28;20228;-64
2023/05/26 01:54:41;;;;;;;10.93;2.90;;;7.90;99.90;;;;;;5004821;28;20689;-64
2023/05/26 01:57:09;;;;;;;17.70;4.60;;;7.80;99.90;;;;;;5038575;28;20200;-64
2023/05/26 01:59:37;;;;;;;12.90;3.13;;;7.80;99.90;;;;;;5032256;28;20200;-64
2023/05/26 02:02:05;;;;;;;15.87;4.10;;;7.80;99.90;;;;;;5029858;28;20988;-64
2023/05/26 02:04:31;;;;;;;10.43;3.33;;;7.80;99.90;;;;;;5035960;28;20224;-64
2023/05/26 02:07:02;;;;;;;17.30;3.87;;;7.80;99.90;;;;;;5050139;28;20199;-64
2023/05/26 02:09:29;;;;;;;10.97;3.47;;;7.80;99.90;;;;;;5044580;28;20201;-65
2023/05/26 02:11:56;;;;;;;12.25;3.08;;;7.80;99.90;;;;;;5020752;28;20211;-64
2023/05/26 02:14:22;;;;;;;22.73;4.17;;;7.70;99.90;;;;;;5048349;28;21184;-64
2023/05/26 02:16:51;;;;;;;17.30;3.13;;;7.70;99.90;;;;;;5015139;28;20197;-65
2023/05/26 02:19:17;;;;;;;15.13;3.33;;;7.60;99.90;;;;;;5040695;28;20212;-64
2023/05/26 02:21:44;;;;;;;15.48;3.67;;;7.60;99.90;;;;;;5029709;28;20212;-64
2023/05/26 02:24:11;;;;;;;7.57;2.70;;;7.60;99.90;;;;;;5044174;28;20231;-64
2023/05/26 02:26:41;;;;;;;12.93;2.83;;;7.50;99.90;;;;;;5007311;28;20211;-64
2023/05/26 02:29:08;;;;;;;14.93;3.67;;;7.50;99.90;;;;;;5044063;28;20189;-64
2023/05/26 02:31:34;;;;;;;22.00;3.40;;;7.50;99.90;;;;;;5043641;28;20208;-64
2023/05/26 02:34:04;;;;;;;19.13;2.88;;;7.60;99.90;;;;;;5021751;28;20569;-64
2023/05/26 02:36:31;;;;;;;16.30;3.20;;;7.60;99.90;;;;;;5040207;28;20200;-64
2023/05/26 02:38:58;;;;;;;10.67;3.03;;;7.60;99.90;;;;;;5039992;28;20296;-64
2023/05/26 02:41:25;;;;;;;11.33;3.57;;;7.50;99.90;;;;;;5015912;28;20224;-64
2023/05/26 02:43:52;;;;;;;12.57;3.60;;;7.40;99.90;;;;;;5031645;28;20314;-64
2023/05/26 02:46:18;;;;;;;14.90;3.77;;;7.40;99.90;;;;;;5045429;28;20205;-64
2023/05/26 02:48:45;;;;;;;16.23;3.47;;;7.50;99.90;;;;;;5029142;28;20201;-64
2023/05/26 02:51:13;;;;;;;19.10;4.40;;;7.40;99.90;;;;;;5038432;28;20205;-64
2023/05/26 02:53:40;;;;;;;15.13;3.63;;;7.50;99.90;;;;;;5043793;28;20213;-64
2023/05/26 02:56:07;;;;;;;15.70;3.83;;;7.60;99.90;;;;;;5044395;28;20201;-64
2023/05/26 02:58:34;;;;;;;16.90;3.57;;;7.60;99.90;;;;;;5015968;28;20205;-64
2023/05/26 03:01:02;;;;;;;16.00;3.43;;;7.60;99.90;;;;;;5041305;28;20204;-64
2023/05/26 03:03:29;;;;;;;13.17;3.30;;;7.60;99.90;;;;;;5046172;28;20205;-64
2023/05/26 03:05:58;;;;;;;15.47;4.07;;;7.50;99.90;;;;;;5025205;28;20205;-64
2023/05/26 03:08:26;;;;;;;14.93;3.33;;;7.60;99.90;;;;;;5044406;28;20730;-65
2023/05/26 03:10:53;;;;;;;19.87;3.37;;;7.50;99.90;;;;;;5045959;28;20220;-64
2023/05/26 03:13:20;;;;;;;16.90;4.50;;;7.60;99.90;;;;;;5014362;28;20213;-64
2023/05/26 03:15:48;;;;;;;16.83;3.40;;;7.60;99.90;;;;;;5040847;28;20842;-64
2023/05/26 03:18:16;;;;;;;16.87;3.93;;;7.50;99.90;;;;;;5045123;28;20246;-64
2023/05/26 03:20:46;;;;;;;13.33;3.60;;;7.40;99.90;;;;;;5032381;28;20193;-64
2023/05/26 03:23:13;;;;;;;11.27;3.50;;;7.40;99.90;;;;;;5035286;28;20243;-64
2023/05/26 03:25:41;;;;;;;14.87;4.30;;;7.20;99.90;;;;;;5041673;28;20889;-64
2023/05/26 03:28:08;;;;;;;11.13;3.47;;;7.10;99.90;;;;;;5009870;28;20212;-64
2023/05/26 03:30:35;;;;;;;14.63;4.67;;;7.00;99.90;;;;;;5041265;28;20205;-64
2023/05/26 03:33:02;;;;;;;11.10;3.00;;;6.80;99.90;;;;;;5040382;28;20360;-64
2023/05/26 03:35:29;;;;;;;14.70;3.50;;;6.70;99.90;;;;;;5042484;28;21603;-64
2023/05/26 03:37:55;;;;;;;13.73;3.37;;;6.80;99.90;;;;;;5017031;28;20201;-64
2023/05/26 03:40:22;;;;;;;13.33;3.27;;;6.80;99.90;;;;;;5041481;28;20565;-64
2023/05/26 03:42:50;;;;;;;14.90;3.73;;;7.00;99.90;;;;;;5002028;28;20213;-64
2023/05/26 03:45:17;;;;;;;12.87;3.33;;;7.00;99.90;;;;;;5042154;28;20228;-64
2023/05/26 03:47:44;;;;;;;11.63;3.23;;;7.00;99.90;;;;;;5034251;28;20200;-64
2023/05/26 03:50:11;;;;;;;12.03;2.93;;;7.00;99.90;;;;;;5031161;28;20605;-64
2023/05/26 03:52:38;;;;;;;10.37;2.93;;;7.00;99.90;;;;;;5019951;28;21164;-64
2023/05/26 03:55:10;;;;;;;9.37;3.00;;;7.00;99.90;;;;;;5032795;28;20207;-64
2023/05/26 03:57:37;;;;;;;10.37;3.50;;;6.90;99.90;;;;;;5027799;28;20305;-64
2023/05/26 04:00:11;;;;;;;14.83;3.17;;;7.00;99.90;;;;;;5017948;28;20209;-64
2023/05/26 04:02:38;;;;;;;13.80;3.57;;;6.90;99.90;;;;;;5018969;28;20228;-64
2023/05/26 04:05:05;;;;;;;12.33;3.63;;;6.80;99.90;;;;;;5040870;28;20714;-64
2023/05/26 04:07:32;;;;;;;10.47;3.30;;;6.80;99.90;;;;;;5027509;28;20212;-64
2023/05/26 04:09:59;;;;;;;13.23;3.43;;;6.90;99.90;;;;;;5034498;28;20212;-64
2023/05/26 04:12:25;;;;;;;19.97;3.53;;;7.00;99.90;;;;;;5006831;28;20212;-64
2023/05/26 04:14:52;;;;;;;10.93;3.27;;;7.10;99.90;;;;;;5012478;28;20603;-64
2023/05/26 04:17:20;;;;;;;21.00;4.33;;;7.20;99.90;;;;;;5034756;28;20674;-64
2023/05/26 04:19:47;;;;;;;11.43;4.03;;;7.20;99.90;;;;;;5037455;28;20316;-64
2023/05/26 04:22:14;;;;;;;14.80;3.33;;;7.20;99.90;;;;;;5044474;28;20212;-64
2023/05/26 04:24:41;;;;;;;22.00;3.87;;;7.30;99.90;;;;;;5026738;28;20236;-64
2023/05/26 04:27:09;;;;;;;12.20;3.73;;;7.40;99.90;;;;;;5035429;28;20204;-64
2023/05/26 04:29:36;;;;;;;10.47;3.73;;;7.50;99.90;;;;;;5006500;28;20240;-64
2023/05/26 04:32:03;;;;;;;13.73;3.90;;;7.70;99.90;;;;;;5024480;28;20205;-64
2023/05/26 04:34:31;;;;;;;22.77;4.63;;;7.80;99.90;;;;;;5033369;28;20268;-64
2023/05/26 04:37:04;;;;;;;13.47;3.40;;;7.90;99.90;;;;;;5040834;28;20201;-64
2023/05/26 04:39:30;;;;;;;33.50;5.10;;;8.10;99.90;;;;;;5026983;28;20237;-64
2023/05/26 04:41:58;;;;;;;14.77;4.57;;;8.20;99.90;;;;;;5014708;28;20213;-64
2023/05/26 04:44:25;;;;;;;22.40;5.03;;;8.20;99.90;;;;;;5008245;28;20239;-64
2023/05/26 04:46:52;;;;;;;21.30;3.87;;;8.20;99.90;;;;;;5021081;28;20225;-64
2023/05/26 04:49:22;;;;;;;18.50;3.70;;;8.30;99.90;;;;;;5004037;28;20701;-64
2023/05/26 04:51:55;;;;;;;14.33;3.80;;;8.30;99.90;;;;;;5033583;28;20244;-64
2023/05/26 04:54:22;;;;;;;17.53;4.67;;;8.30;99.90;;;;;;5011587;28;20209;-64
2023/05/26 04:56:49;;;;;;;21.83;4.57;;;8.30;99.90;;;;;;5018383;28;20231;-65
2023/05/26 04:59:17;;;;;;;14.00;4.07;;;8.30;99.90;;;;;;5022063;28;20213;-64
2023/05/26 05:01:47;;;;;;;14.77;4.53;;;8.30;99.90;;;;;;4995134;28;20228;-64
2023/05/26 05:04:14;;;;;;;12.97;4.43;;;8.40;99.90;;;;;;5021712;28;20725;-64
2023/05/26 05:06:40;;;;;;;15.65;4.63;;;8.40;99.90;;;;;;5015589;28;20204;-64
2023/05/26 05:09:09;;;;;;;17.97;3.67;;;8.50;99.90;;;;;;5036520;28;20330;-65
2023/05/26 05:11:35;;;;;;;15.38;3.70;;;8.50;99.90;;;;;;5006302;28;20233;-64
2023/05/26 05:14:02;;;;;;;16.20;4.53;;;8.50;99.90;;;;;;5028450;28;20225;-65
2023/05/26 05:16:29;;;;;;;18.93;5.17;;;8.60;99.90;;;;;;4982671;28;22823;-64
2023/05/26 05:18:56;;;;;;;17.53;4.70;;;8.70;99.90;;;;;;5021201;28;20714;-63
2023/05/26 05:21:22;;;;;;;18.73;4.90;;;8.80;99.90;;;;;;5025578;28;20216;-64
2023/05/26 05:23:49;;;;;;;21.40;4.30;;;8.90;99.90;;;;;;5023579;28;20201;-64
2023/05/26 05:26:17;;;;;;;18.92;4.80;;;8.90;99.90;;;;;;5019980;28;20231;-64
2023/05/26 05:28:44;;;;;;;17.52;5.60;;;9.00;99.90;;;;;;5023105;28;20205;-63
2023/05/26 05:31:11;;;;;;;21.17;5.25;;;9.00;99.90;;;;;;4971657;28;20232;-64
2023/05/26 05:33:39;;;;;;;16.60;4.90;;;9.10;99.90;;;;;;5010667;28;20207;-63
2023/05/26 05:36:07;;;;;;;17.40;4.63;;;9.20;99.90;;;;;;5040634;28;20252;-64
2023/05/26 05:38:33;;;;;;;19.90;4.07;;;9.30;99.90;;;;;;5040085;28;21145;-64
2023/05/26 05:41:00;;;;;;;15.48;3.72;;;9.30;99.90;;;;;;5044535;28;20865;-64
2023/05/26 05:43:28;;;;;;;29.92;5.00;;;9.30;99.90;;;;;;5037628;28;20194;-64
2023/05/26 05:45:56;;;;;;;31.17;4.03;;;9.40;99.90;;;;;;5012520;28;20323;-65
2023/05/26 05:48:22;;;;;;;17.30;3.80;;;9.50;99.90;;;;;;5018737;28;20257;-64
2023/05/26 05:50:49;;;;;;;16.98;4.30;;;9.50;99.90;;;;;;5027989;28;20575;-64
2023/05/26 05:53:16;;;;;;;16.60;4.10;;;9.60;99.90;;;;;;5028385;28;20795;-64
2023/05/26 05:55:43;;;;;;;15.20;4.70;;;9.60;99.90;;;;;;5037818;28;20494;-64
2023/05/26 05:58:10;;;;;;;20.75;4.20;;;9.70;99.90;;;;;;5042325;28;20909;-64
2023/05/26 06:00:38;;;;;;;10.02;3.72;;;9.80;99.90;;;;;;5013911;28;20193;-64
2023/05/26 06:03:05;;;;;;;16.13;4.65;;;9.80;99.90;;;;;;5017095;28;20343;-64
2023/05/26 06:05:32;;;;;;;25.40;4.53;;;9.90;99.90;;;;;;5027818;28;20225;-64
2023/05/26 06:07:58;;;;;;;12.23;4.13;;;10.00;99.90;;;;;;5011763;28;20225;-64
2023/05/26 06:10:25;;;;;;;23.90;3.78;;;10.00;99.90;;;;;;5036303;28;20672;-64
2023/05/26 06:12:52;;;;;;;19.05;4.50;;;10.10;99.90;;;;;;5028203;28;20224;-64
2023/05/26 06:15:19;;;;;;;20.50;4.32;;;10.20;99.90;;;;;;5003454;28;20278;-64
2023/05/26 06:17:47;;;;;;;18.70;4.35;;;10.30;99.90;;;;;;4989294;28;20211;-64
2023/05/26 06:20:14;;;;;;;15.55;4.13;;;10.30;99.90;;;;;;5004095;28;21133;-65
2023/05/26 06:22:42;;;;;;;23.10;4.05;;;10.30;99.90;;;;;;5026595;28;20208;-64
2023/05/26 06:25:09;;;;;;;14.88;4.05;;;10.40;99.90;;;;;;5037428;28;20243;-64
2023/05/26 06:27:36;;;;;;;16.95;4.13;;;10.50;99.90;;;;;;5030364;28;20212;-65
2023/05/26 06:30:03;;;;;;;26.20;5.30;;;10.50;99.90;;;;;;5037620;28;20202;-64
2023/05/26 06:32:29;;;;;;;26.20;4.85;;;10.60;99.90;;;;;;4994401;28;20876;-64
2023/05/26 06:34:58;;;;;;;14.13;3.33;;;10.60;99.90;;;;;;5015196;28;20236;-64
2023/05/26 06:37:24;;;;;;;18.67;4.72;;;10.60;99.90;;;;;;5042608;28;20204;-64
2023/05/26 06:39:51;;;;;;;17.75;4.70;;;10.70;99.90;;;;;;5023423;28;20212;-64
2023/05/26 06:42:18;;;;;;;12.00;3.40;;;10.70;99.90;;;;;;5037342;28;20208;-64
2023/05/26 06:44:45;;;;;;;16.30;5.25;;;10.70;99.90;;;;;;5027862;28;20228;-64
2023/05/26 06:47:11;;;;;;;19.45;3.75;;;10.80;99.90;;;;;;5001349;28;21005;-64
2023/05/26 06:49:38;;;;;;;19.77;3.25;;;10.80;99.90;;;;;;5018779;28;20220;-63
2023/05/26 06:52:07;;;;;;;22.30;4.15;;;11.00;99.90;;;;;;5025551;28;20224;-64
2023/05/26 06:54:33;;;;;;;19.80;4.25;;;11.10;99.90;;;;;;5004810;28;21500;-65
2023/05/26 06:57:01;;;;;;;15.00;3.78;;;11.10;99.90;;;;;;5044107;28;20215;-64
2023/05/26 06:59:28;;;;;;;13.30;3.65;;;11.10;99.90;;;;;;5015720;28;23222;-66
2023/05/26 07:01:54;;;;;;;14.43;3.45;;;11.20;99.90;;;;;;5041622;28;20576;-64
2023/05/26 07:04:21;;;;;;;13.30;3.42;;;11.20;99.90;;;;;;4999773;28;20205;-64
2023/05/26 07:06:48;;;;;;;13.18;3.30;;;11.20;99.90;;;;;;5018850;28;20745;-64
2023/05/26 07:09:16;;;;;;;15.93;4.40;;;11.40;99.90;;;;;;5030410;28;20208;-64
2023/05/26 07:11:43;;;;;;;12.90;3.60;;;11.40;99.90;;;;;;5040781;28;20193;-64
2023/05/26 07:14:10;;;;;;;15.45;3.15;;;11.50;99.90;;;;;;5017904;28;20209;-65
2023/05/26 07:16:36;;;;;;;19.02;3.83;;;11.50;99.90;;;;;;5041621;28;20872;-65
2023/05/26 07:19:03;;;;;;;12.57;3.35;;;11.50;99.90;;;;;;4999634;28;20293;-65
2023/05/26 07:21:31;;;;;;;19.95;4.10;;;11.50;99.90;;;;;;5023958;28;20208;-64
2023/05/26 07:23:58;;;;;;;15.25;3.28;;;11.50;99.90;;;;;;5024430;28;21018;-65
2023/05/26 07:26:26;;;;;;;12.00;3.25;;;11.50;99.90;;;;;;5045250;28;20307;-64
2023/05/26 07:28:53;;;;;;;15.80;3.40;;;11.40;99.90;;;;;;5023645;28;20216;-65
2023/05/26 07:31:20;;;;;;;18.52;4.03;;;11.50;99.90;;;;;;5042314;28;20285;-64
2023/05/26 07:33:47;;;;;;;18.63;3.45;;;11.50;99.90;;;;;;5011101;28;20809;-66
2023/05/26 07:36:14;;;;;;;10.95;3.33;;;11.50;99.90;;;;;;5035617;28;20266;-66
2023/05/26 07:38:41;;;;;;;18.90;4.32;;;11.50;99.90;;;;;;5029171;28;20205;-65
2023/05/26 07:41:07;;;;;;;9.27;2.90;;;11.60;99.90;;;;;;5036166;28;20205;-65
2023/05/26 07:43:36;;;;;;;12.60;3.85;;;11.70;99.90;;;;;;5045329;28;20287;-65
2023/05/26 07:46:02;;;;;;;23.13;4.53;;;11.70;99.90;;;;;;5034739;28;20752;-65
2023/05/26 07:48:30;;;;;;;12.38;3.22;;;11.60;99.90;;;;;;5044377;28;20204;-64
2023/05/26 07:50:56;;;;;;;13.40;2.67;;;11.60;99.90;;;;;;5012657;28;20224;-65
2023/05/26 07:53:23;;;;;;;19.70;3.55;;;11.50;99.90;;;;;;5032694;28;20206;-64
2023/05/26 07:55:50;;;;;;;14.32;3.03;;;11.50;99.90;;;;;;5032176;28;20200;-65
2023/05/26 07:58:17;;;;;;;13.90;3.05;;;11.60;99.90;;;;;;5045787;28;20204;-65
2023/05/26 08:00:45;;;;;;;10.13;3.05;;;11.70;99.90;;;;;;5034606;28;21553;-65
2023/05/26 08:03:12;;;;;;;14.32;3.90;;;11.70;99.90;;;;;;5048387;28;20200;-64
2023/05/26 08:05:38;;;;;;;16.77;3.33;;;11.60;99.90;;;;;;5015374;28;20221;-65
2023/05/26 08:08:05;;;;;;;14.32;3.92;;;11.70;99.90;;;;;;5040891;28;20238;-65
2023/05/26 08:10:33;;;;;;;15.88;4.20;;;11.70;99.90;;;;;;5016788;28;20208;-65
2023/05/26 08:13:00;;;;;;;15.43;3.80;;;11.70;99.90;;;;;;5033904;28;20205;-64
2023/05/26 08:15:27;;;;;;;13.40;3.78;;;11.70;99.90;;;;;;5041452;28;20872;-65
2023/05/26 08:17:55;;;;;;;13.45;3.08;;;11.80;99.90;;;;;;5034383;28;20910;-66
2023/05/26 08:20:22;;;;;;;17.17;3.22;;;11.80;99.90;;;;;;5039389;28;20264;-66
2023/05/26 08:22:48;;;;;;;16.65;3.30;;;12.10;99.90;;;;;;5022052;28;20998;-66
2023/05/26 08:25:15;;;;;;;13.68;3.00;;;12.00;99.90;;;;;;5029672;28;20201;-65
2023/05/26 08:27:42;;;;;;;11.43;2.70;;;11.90;99.90;;;;;;5031143;28;20225;-65
2023/05/26 08:30:09;;;;;;;12.20;3.67;;;12.00;99.90;;;;;;5032988;28;20235;-66
2023/05/26 08:32:36;;;;;;;11.57;3.58;;;12.00;99.90;;;;;;5028485;28;20197;-65
2023/05/26 08:35:05;;;;;;;15.93;4.18;;;12.20;99.90;;;;;;5046341;28;20224;-65
2023/05/26 08:37:31;;;;;;;15.30;3.60;;;12.50;99.90;;;;;;5010218;28;20219;-65
2023/05/26 08:39:58;;;;;;;16.35;3.85;;;12.60;99.90;;;;;;5029920;28;20205;-65
2023/05/26 08:42:28;;;;;;;8.98;2.60;;;12.60;99.90;;;;;;5027212;28;20217;-65
2023/05/26 08:44:56;;;;;;;13.80;3.35;;;12.70;99.90;;;;;;5046879;28;21231;-65
2023/05/26 08:47:24;;;;;;;11.65;3.45;;;12.80;99.90;;;;;;5046551;28;20228;-65
2023/05/26 08:49:54;;;;;;;17.98;4.32;;;12.90;99.90;;;;;;5033410;28;20629;-65
2023/05/26 08:52:23;;;;;;;10.10;3.20;;;13.00;99.90;;;;;;5011258;28;20700;-65
2023/05/26 08:54:50;;;;;;;13.48;2.95;;;13.10;99.90;;;;;;5033125;28;23691;-66
2023/05/26 08:57:20;;;;;;;11.32;2.92;;;13.00;99.90;;;;;;5035271;28;20208;-65
2023/05/26 08:59:48;;;;;;;12.05;3.00;;;13.00;99.90;;;;;;5042069;28;20408;-65
2023/05/26 09:02:15;;;;;;;12.43;3.50;;;12.90;99.90;;;;;;5021665;28;20616;-65
2023/05/26 09:04:42;;;;;;;15.88;3.03;;;12.80;99.90;;;;;;5016312;28;20281;-65
2023/05/26 09:07:10;;;;;;;10.52;3.17;;;12.70;99.90;;;;;;5006920;28;20239;-65
2023/05/26 09:09:38;;;;;;;11.68;2.85;;;12.50;99.90;;;;;;5044472;28;20232;-65
2023/05/26 09:12:09;;;;;;;19.33;2.75;;;12.50;99.90;;;;;;5031251;28;20295;-65
2023/05/26 09:14:37;;;;;;;13.85;2.95;;;12.50;99.90;;;;;;5036729;28;20204;-66
2023/05/26 09:17:04;;;;;;;12.80;3.03;;;12.60;99.90;;;;;;5044398;28;20197;-65
2023/05/26 09:19:32;;;;;;;17.90;3.28;;;12.70;99.90;;;;;;5034272;28;20205;-67
2023/05/26 09:22:06;;;;;;;13.18;2.80;;;12.70;99.90;;;;;;5009755;28;20213;-64
2023/05/26 09:24:45;;;;;;;10.75;2.88;;;12.70;99.90;;;;;;5038895;28;20681;-65
2023/05/26 09:27:20;;;;;;;13.18;2.90;;;12.90;99.90;;;;;;5018293;28;20228;-65
2023/05/26 09:29:52;;;;;;;11.35;3.00;;;13.00;99.90;;;;;;5045487;28;20196;-64
2023/05/26 09:32:18;;;;;;;14.27;3.03;;;13.20;99.90;;;;;;5037390;28;20238;-65
2023/05/26 09:34:45;;;;;;;13.25;3.20;;;13.30;99.90;;;;;;5045353;28;20717;-65
2023/05/26 09:37:12;;;;;;;15.68;3.10;;;13.40;99.90;;;;;;5011579;28;20666;-65
2023/05/26 09:39:39;;;;;;;10.82;2.88;;;13.10;99.90;;;;;;5027497;28;20316;-64
2023/05/26 09:42:09;;;;;;;19.83;3.35;;;12.90;99.90;;;;;;5025289;28;20228;-64
2023/05/26 09:44:36;;;;;;;11.30;3.28;;;13.00;99.90;;;;;;5030773;28;20984;-65
2023/05/26 09:47:03;;;;;;;13.18;3.55;;;13.00;99.90;;;;;;5039564;28;20727;-64
2023/05/26 09:49:32;;;;;;;13.30;2.78;;;13.10;99.90;;;;;;5041878;28;20200;-65
2023/05/26 09:52:00;;;;;;;11.15;2.85;;;13.10;99.90;;;;;;5034057;28;20205;-64
2023/05/26 09:54:27;;;;;;;11.07;3.38;;;13.20;99.90;;;;;;5016317;28;20692;-64
2023/05/26 09:57:01;;;;;;;12.07;3.53;;;13.30;99.90;;;;;;5034065;28;20205;-65
2023/05/26 09:59:32;;;;;;;12.25;2.78;;;13.60;99.90;;;;;;5030424;28;20201;-65
2023/05/26 10:02:00;;;;;;;14.73;3.35;;;13.90;99.90;;;;;;5044457;28;20201;-64
2023/05/26 10:04:28;;;;;;;14.95;3.40;;;13.70;99.90;;;;;;5040387;28;20271;-65
2023/05/26 10:06:56;;;;;;;10.75;3.00;;;13.60;99.90;;;;;;5030358;28;20260;-65
2023/05/26 10:09:24;;;;;;;11.00;2.63;;;13.60;99.90;;;;;;5006901;28;20691;-65
2023/05/26 10:11:53;;;;;;;12.13;2.92;;;13.70;99.90;;;;;;5044905;28;20200;-65
2023/05/26 10:14:20;;;;;;;14.38;3.35;;;13.80;99.90;;;;;;5025792;28;20205;-65
2023/05/26 10:16:49;;;;;;;9.48;2.85;;;13.80;99.90;;;;;;5045443;28;20201;-65
2023/05/26 10:19:17;;;;;;;13.63;3.50;;;13.80;99.90;;;;;;5038767;28;20216;-64
2023/05/26 10:21:52;;;;;;;13.75;3.08;;;13.90;99.90;;;;;;5028479;28;20235;-64
2023/05/26 10:24:26;;;;;;;9.00;2.55;;;13.80;99.90;;;;;;5008545;28;20201;-64
2023/05/26 10:26:59;;;;;;;13.02;3.28;;;13.90;99.90;;;;;;5043379;28;20252;-65
2023/05/26 10:29:33;;;;;;;12.20;3.00;;;14.10;99.90;;;;;;5038765;28;21849;-65
2023/05/26 10:32:01;;;;;;;12.55;3.50;;;14.20;99.90;;;;;;5031713;28;20204;-65
2023/05/26 10:34:38;;;;;;;9.50;2.70;;;13.80;99.90;;;;;;5049885;28;20228;-64
2023/05/26 10:37:13;;;;;;;9.18;2.50;;;13.70;99.90;;;;;;5035147;28;20193;-65
2023/05/26 10:39:41;;;;;;;11.10;3.22;;;13.70;99.90;;;;;;5019843;28;20208;-65
2023/05/26 10:42:17;;;;;;;16.63;3.83;;;13.70;99.90;;;;;;5043446;28;20228;-65
2023/05/26 10:44:46;;;;;;;15.82;3.35;;;13.70;99.90;;;;;;5034174;28;20301;-65
2023/05/26 10:47:18;;;;;;;12.43;3.35;;;14.00;99.90;;;;;;5034109;28;20750;-65
2023/05/26 10:49:55;;;;;;;10.23;2.80;;;13.80;99.90;;;;;;5049738;28;20801;-65
2023/05/26 10:52:22;;;;;;;13.32;2.85;;;13.70;99.90;;;;;;5014028;28;20208;-65
2023/05/26 10:54:51;;;;;;;10.20;2.75;;;13.80;99.90;;;;;;5014646;28;20197;-65
2023/05/26 10:57:31;;;;;;;11.40;2.78;;;13.90;99.90;;;;;;5028807;28;20205;-65
2023/05/26 10:59:58;;;;;;;10.35;2.60;;;14.00;99.90;;;;;;5009981;28;20220;-65
2023/05/26 11:02:27;;;;;;;12.93;3.47;;;13.80;99.90;;;;;;5030182;28;20224;-65
2023/05/26 11:04:54;;;;;;;11.23;3.00;;;13.70;99.90;;;;;;5017691;28;20417;-65
2023/05/26 11:07:23;;;;;;;8.05;2.85;;;13.80;99.90;;;;;;5032527;28;20250;-65
2023/05/26 11:10:02;;;;;;;8.02;2.97;;;13.80;99.90;;;;;;4993679;28;20327;-65
2023/05/26 11:12:33;;;;;;;14.25;3.78;;;13.90;99.90;;;;;;5022496;28;20228;-65
2023/05/26 11:15:22;;;;;;;12.35;3.17;;;13.80;99.90;;;;;;5031054;28;20322;-65
2023/05/26 11:17:57;;;;;;;10.23;3.72;;;14.00;99.90;;;;;;5016208;28;20234;-65
2023/05/26 11:20:24;;;;;;;11.07;3.65;;;14.00;99.90;;;;;;5046899;28;20223;-65
2023/05/26 11:22:52;;;;;;;15.75;3.78;;;13.90;99.90;;;;;;5028120;28;20209;-65
2023/05/26 11:25:19;;;;;;;14.45;3.47;;;13.90;99.90;;;;;;5016203;28;20280;-65
2023/05/26 11:27:47;;;;;;;11.00;3.15;;;13.70;99.90;;;;;;5033317;28;20225;-65
2023/05/26 11:30:14;;;;;;;8.23;2.40;;;13.70;99.90;;;;;;5017810;28;20196;-65
2023/05/26 11:32:45;;;;;;;15.77;3.00;;;13.80;99.90;;;;;;5028692;28;20730;-65
2023/05/26 11:35:23;;;;;;;21.20;3.28;;;14.00;99.90;;;;;;5003693;28;20241;-65
2023/05/26 11:37:50;;;;;;;11.60;3.05;;;14.20;99.90;;;;;;5034336;28;20228;-65
2023/05/26 11:40:17;;;;;;;9.80;2.88;;;14.10;99.90;;;;;;5006983;28;20201;-65
2023/05/26 11:42:45;;;;;;;11.30;3.40;;;13.90;99.90;;;;;;5038752;28;20220;-65
2023/05/26 11:45:11;;;;;;;17.40;3.28;;;13.90;99.90;;;;;;5031135;28;21055;-66
2023/05/26 11:47:39;;;;;;;18.70;3.00;;;14.00;99.90;;;;;;5053123;28;20221;-65
2023/05/26 11:50:08;;;;;;;12.35;3.80;;;14.00;99.90;;;;;;5015947;28;20200;-65
2023/05/26 11:52:41;;;;;;;14.98;3.03;;;14.10;99.90;;;;;;5046810;28;20200;-64
2023/05/26 11:55:11;;;;;;;14.30;4.15;;;14.10;99.90;;;;;;5002313;28;20213;-66
2023/05/26 11:57:38;;;;;;;10.20;3.05;;;14.20;99.90;;;;;;5032740;28;20217;-65
2023/05/26 12:00:09;;;;;;;12.00;2.80;;;14.10;99.90;;;;;;5027748;28;20303;-66
2023/05/26 12:02:36;;;;;;;13.20;3.72;;;14.10;99.90;;;;;;5041990;28;20194;-65
2023/05/26 12:05:17;;;;;;;12.30;2.85;;;14.30;99.90;;;;;;5031666;28;20201;-65
2023/05/26 12:07:46;;;;;;;9.70;3.05;;;14.30;99.90;;;;;;5047531;28;20710;-65
2023/05/26 12:10:12;;;;;;;8.73;2.90;;;14.40;99.90;;;;;;5035698;28;20205;-65
2023/05/26 12:12:49;;;;;;;11.20;3.17;;;14.30;99.90;;;;;;5008778;28;20204;-64
2023/05/26 12:15:19;;;;;;;14.38;3.28;;;14.10;99.90;;;;;;5043047;28;20764;-65
2023/05/26 12:17:46;;;;;;;12.48;3.13;;;14.00;99.90;;;;;;5039039;28;20201;-66
2023/05/26 12:20:16;;;;;;;12.00;2.72;;;14.00;99.90;;;;;;5033145;28;20729;-65
2023/05/26 12:22:43;;;;;;;7.03;2.78;;;14.10;99.90;;;;;;5054820;28;20614;-65
2023/05/26 12:25:11;;;;;;;17.13;3.33;;;14.10;99.90;;;;;;5035072;28;20295;-65
2023/05/26 12:27:39;;;;;;;15.32;3.30;;;14.30;99.90;;;;;;5023361;28;20740;-64
2023/05/26 12:30:21;;;;;;;8.05;3.08;;;14.20;99.90;;;;;;5029955;28;20221;-65
2023/05/26 12:32:49;;;;;;;13.68;3.35;;;14.20;99.90;;;;;;5030353;28;20209;-65
2023/05/26 12:35:16;;;;;;;19.35;3.80;;;14.00;99.90;;;;;;5041555;28;20248;-64
2023/05/26 12:37:43;;;;;;;14.40;3.38;;;13.90;99.90;;;;;;5014621;28;20197;-64
2023/05/26 12:40:13;;;;;;;12.65;3.83;;;14.00;99.90;;;;;;5024170;28;21284;-65
2023/05/26 12:42:41;;;;;;;13.45;2.55;;;14.20;99.90;;;;;;5008252;28;20230;-64
2023/05/26 12:45:08;;;;;;;16.77;3.83;;;14.20;99.90;;;;;;5013500;28;20353;-65
2023/05/26 12:47:35;;;;;;;7.38;2.38;;;14.30;99.90;;;;;;5027386;28;20239;-64
2023/05/26 12:50:03;;;;;;;16.50;3.97;;;14.30;99.90;;;;;;5033432;28;20705;-65